createdAt,value
2017-08-07T00:00:32.152Z,16.60
2017-08-07T00:02:59.671Z,16.60
2017-08-07T00:05:27.971Z,16.70
2017-08-07T00:07:55.948Z,16.60
2017-08-07T00:10:23.451Z,16.70
2017-08-07T00:12:51.058Z,16.70
2017-08-07T00:15:18.563Z,16.70
2017-08-07T00:17:46.587Z,16.70
2017-08-07T00:20:14.090Z,16.50
2017-08-07T00:22:41.618Z,16.50
2017-08-07T00:25:09.118Z,16.50
2017-08-07T00:27:36.619Z,16.50
2017-08-07T00:30:04.139Z,16.40
2017-08-07T00:32:32.160Z,16.40
2017-08-07T00:34:59.707Z,16.30
2017-08-07T00:37:27.279Z,16.30
2017-08-07T00:39:54.798Z,16.30
2017-08-07T00:42:23.063Z,16.30
2017-08-07T00:44:50.575Z,16.30
2017-08-07T00:47:18.119Z,16.40
2017-08-07T00:49:45.647Z,16.30
2017-08-07T00:52:13.910Z,16.30
2017-08-07T00:54:41.511Z,16.30
2017-08-07T00:57:09.019Z,16.30
2017-08-07T00:59:36.519Z,16.20
2017-08-07T01:02:04.035Z,16.20
2017-08-07T01:04:31.643Z,16.10
2017-08-07T01:06:59.163Z,16.10
2017-08-07T01:09:26.671Z,16.10
2017-08-07T01:11:54.192Z,16.10
2017-08-07T01:14:22.487Z,16.00
2017-08-07T01:16:50.003Z,16.00
2017-08-07T01:19:17.514Z,15.90
2017-08-07T01:21:45.076Z,15.90
2017-08-07T01:24:12.579Z,15.90
2017-08-07T01:26:40.098Z,15.90
2017-08-07T01:29:07.599Z,15.90
2017-08-07T01:31:35.403Z,15.80
2017-08-07T01:34:02.920Z,15.80
2017-08-07T01:36:30.518Z,15.90
2017-08-07T01:38:58.083Z,15.80
2017-08-07T01:41:25.951Z,15.90
2017-08-07T01:43:53.828Z,15.90
2017-08-07T01:46:21.370Z,15.80
2017-08-07T01:48:48.935Z,15.70
2017-08-07T01:51:16.495Z,15.70
2017-08-07T01:53:44.015Z,15.70
2017-08-07T01:56:11.519Z,15.60
2017-08-07T01:58:39.015Z,15.60
2017-08-07T02:01:06.540Z,15.60
2017-08-07T02:03:34.043Z,15.60
2017-08-07T02:06:01.635Z,15.60
2017-08-07T02:08:29.140Z,15.70
2017-08-07T02:10:56.759Z,15.70
2017-08-07T02:13:24.314Z,15.70
2017-08-07T02:15:51.830Z,15.70
2017-08-07T02:18:19.327Z,15.70
2017-08-07T02:20:46.895Z,15.60
2017-08-07T02:23:14.415Z,15.60
2017-08-07T02:25:41.920Z,15.60
2017-08-07T02:28:09.470Z,15.50
2017-08-07T02:30:36.979Z,15.50
2017-08-07T02:33:04.587Z,15.50
2017-08-07T02:35:32.096Z,15.50
2017-08-07T02:37:59.619Z,15.40
2017-08-07T02:40:27.123Z,15.40
2017-08-07T02:42:54.651Z,15.30
2017-08-07T02:45:22.158Z,15.40
2017-08-07T02:47:49.682Z,15.30
2017-08-07T02:50:17.284Z,15.30
2017-08-07T02:52:44.795Z,15.20
2017-08-07T02:55:12.406Z,15.10
2017-08-07T02:57:39.913Z,15.10
2017-08-07T03:00:07.432Z,15.00
2017-08-07T03:02:34.983Z,15.00
2017-08-07T03:05:02.515Z,15.10
2017-08-07T03:07:30.819Z,15.00
2017-08-07T03:09:58.335Z,15.00
2017-08-07T03:12:25.934Z,14.90
2017-08-07T03:14:53.500Z,15.00
2017-08-07T03:17:21.511Z,15.00
2017-08-07T03:19:49.126Z,14.90
2017-08-07T03:22:16.627Z,14.90
2017-08-07T03:24:44.140Z,14.90
2017-08-07T03:27:11.990Z,14.90
2017-08-07T03:29:41.001Z,14.90
2017-08-07T03:32:08.535Z,14.90
2017-08-07T03:34:36.802Z,14.90
2017-08-07T03:37:04.322Z,14.80
2017-08-07T03:39:31.850Z,14.90
2017-08-07T03:41:59.367Z,14.90
2017-08-07T03:44:26.862Z,14.80
2017-08-07T03:46:55.052Z,14.80
2017-08-07T03:49:22.555Z,14.70
2017-08-07T03:51:50.071Z,14.70
2017-08-07T03:54:17.958Z,14.70
2017-08-07T03:56:45.459Z,14.50
2017-08-07T03:59:13.743Z,14.50
2017-08-07T04:01:42.006Z,14.50
2017-08-07T04:04:10.287Z,14.40
2017-08-07T04:06:38.555Z,14.40
2017-08-07T04:09:06.867Z,14.40
2017-08-07T04:11:34.419Z,14.40
2017-08-07T04:14:01.983Z,14.50
2017-08-07T04:16:29.486Z,14.50
2017-08-07T04:18:57.015Z,14.50
2017-08-07T04:21:24.554Z,14.40
2017-08-07T04:23:52.115Z,14.30
2017-08-07T04:26:19.636Z,14.40
2017-08-07T04:28:47.912Z,14.50
2017-08-07T04:31:15.503Z,14.40
2017-08-07T04:33:43.008Z,14.50
2017-08-07T04:36:10.523Z,14.50
2017-08-07T04:38:38.295Z,14.50
2017-08-07T04:41:05.812Z,14.50
2017-08-07T04:43:34.888Z,14.60
2017-08-07T04:46:02.410Z,14.50
2017-08-07T04:48:29.914Z,14.60
2017-08-07T04:50:57.431Z,14.60
2017-08-07T04:53:24.930Z,14.50
2017-08-07T04:55:52.437Z,14.50
2017-08-07T04:58:19.986Z,14.60
2017-08-07T05:00:47.483Z,14.60
2017-08-07T05:03:14.998Z,14.70
2017-08-07T05:05:42.504Z,14.80
2017-08-07T05:08:10.022Z,14.80
2017-08-07T05:10:37.579Z,14.80
2017-08-07T05:13:05.135Z,14.90
2017-08-07T05:15:32.691Z,15.00
2017-08-07T05:18:00.220Z,15.00
2017-08-07T05:20:28.486Z,15.20
2017-08-07T05:22:56.086Z,15.20
2017-08-07T05:25:23.651Z,15.20
2017-08-07T05:27:51.163Z,15.30
2017-08-07T05:30:18.683Z,15.30
2017-08-07T05:32:46.186Z,15.50
2017-08-07T05:35:13.779Z,15.60
2017-08-07T05:37:41.339Z,15.70
2017-08-07T05:40:08.895Z,15.70
2017-08-07T05:42:36.798Z,15.90
2017-08-07T05:45:04.319Z,16.00
2017-08-07T05:47:31.882Z,16.10
2017-08-07T05:49:59.794Z,16.20
2017-08-07T05:52:27.307Z,16.40
2017-08-07T05:54:54.871Z,16.50
2017-08-07T05:57:22.391Z,16.60
2017-08-07T05:59:49.887Z,16.80
2017-08-07T06:02:17.754Z,16.90
2017-08-07T06:04:45.302Z,17.00
2017-08-07T06:07:12.835Z,17.10
2017-08-07T06:09:41.106Z,17.30
2017-08-07T06:12:08.680Z,17.30
2017-08-07T06:14:36.955Z,17.60
2017-08-07T06:17:05.936Z,17.70
2017-08-07T06:19:33.447Z,17.70
2017-08-07T06:22:01.562Z,17.80
2017-08-07T06:24:29.080Z,17.90
2017-08-07T06:26:56.587Z,18.00
2017-08-07T06:29:24.891Z,18.10
2017-08-07T06:31:53.091Z,18.10
2017-08-07T06:34:20.607Z,18.20
2017-08-07T06:36:48.123Z,18.40
2017-08-07T06:39:15.648Z,18.50
2017-08-07T06:41:43.157Z,18.60
2017-08-07T06:44:10.750Z,18.80
2017-08-07T06:46:38.264Z,18.90
2017-08-07T06:49:05.799Z,19.00
2017-08-07T06:51:33.312Z,19.10
2017-08-07T06:54:01.596Z,19.30
2017-08-07T06:56:29.167Z,19.30
2017-08-07T06:58:56.727Z,19.30
2017-08-07T07:01:24.257Z,19.40
2017-08-07T07:03:52.561Z,19.70
2017-08-07T07:06:20.119Z,19.70
2017-08-07T07:08:47.628Z,19.70
2017-08-07T07:11:15.234Z,19.80
2017-08-07T07:13:43.455Z,19.90
2017-08-07T07:16:10.972Z,20.10
2017-08-07T07:18:38.479Z,20.10
2017-08-07T07:21:05.999Z,20.20
2017-08-07T07:23:33.502Z,20.30
2017-08-07T07:26:01.003Z,20.30
2017-08-07T07:28:28.524Z,20.40
2017-08-07T07:30:56.119Z,20.40
2017-08-07T07:33:23.642Z,20.50
2017-08-07T07:35:51.143Z,20.50
2017-08-07T07:38:18.658Z,20.60
2017-08-07T07:40:46.156Z,20.70
2017-08-07T07:43:13.715Z,20.80
2017-08-07T07:45:41.219Z,20.90
2017-08-07T07:48:08.739Z,21.00
2017-08-07T07:50:36.242Z,21.00
2017-08-07T07:53:03.772Z,21.20
2017-08-07T07:55:31.275Z,21.30
2017-08-07T07:57:59.580Z,21.50
2017-08-07T08:00:27.087Z,21.40
2017-08-07T08:02:54.587Z,21.60
2017-08-07T08:05:22.103Z,21.60
2017-08-07T08:07:49.611Z,21.70
2017-08-07T08:10:17.168Z,21.80
2017-08-07T08:12:44.675Z,21.90
2017-08-07T08:15:12.284Z,22.00
2017-08-07T08:17:39.787Z,22.10
2017-08-07T08:20:07.403Z,22.00
2017-08-07T08:22:34.907Z,22.10
2017-08-07T08:25:02.430Z,22.10
2017-08-07T08:27:30.695Z,22.20
2017-08-07T08:29:58.221Z,22.30
2017-08-07T08:32:26.930Z,22.50
2017-08-07T08:34:54.504Z,22.50
2017-08-07T08:37:22.166Z,22.60
2017-08-07T08:39:49.675Z,22.60
2017-08-07T08:42:17.195Z,22.70
2017-08-07T08:44:44.741Z,22.70
2017-08-07T08:47:12.287Z,22.70
2017-08-07T08:49:39.847Z,22.80
2017-08-07T08:52:07.366Z,22.90
2017-08-07T08:54:34.873Z,23.00
2017-08-07T08:57:03.039Z,23.10
2017-08-07T08:59:30.545Z,23.20
2017-08-07T09:01:58.158Z,23.30
2017-08-07T09:04:25.659Z,23.40
2017-08-07T09:06:53.163Z,23.50
2017-08-07T09:09:20.683Z,23.40
2017-08-07T09:11:48.182Z,23.50
2017-08-07T09:14:15.752Z,23.50
2017-08-07T09:16:43.307Z,23.50
2017-08-07T09:19:10.828Z,23.50
2017-08-07T09:21:38.337Z,23.60
2017-08-07T09:24:05.860Z,23.70
2017-08-07T09:26:33.376Z,23.70
2017-08-07T09:29:00.995Z,23.80
2017-08-07T09:31:28.499Z,23.90
2017-08-07T09:33:56.024Z,24.00
2017-08-07T09:36:23.567Z,24.00
2017-08-07T09:38:51.135Z,24.20
2017-08-07T09:41:18.639Z,24.10
2017-08-07T09:43:46.148Z,24.20
2017-08-07T09:46:13.702Z,24.30
2017-08-07T09:48:41.266Z,24.40
2017-08-07T09:51:08.823Z,24.50
2017-08-07T09:53:36.323Z,24.50
2017-08-07T09:56:03.935Z,24.50
2017-08-07T09:58:31.954Z,24.50
2017-08-07T10:01:00.103Z,24.40
2017-08-07T10:03:27.609Z,24.40
2017-08-07T10:05:55.132Z,24.50
2017-08-07T10:08:22.636Z,24.60
2017-08-07T10:10:51.240Z,24.40
2017-08-07T10:13:18.804Z,24.40
2017-08-07T10:15:47.172Z,24.30
2017-08-07T10:18:14.739Z,24.30
2017-08-07T10:20:42.308Z,24.30
2017-08-07T10:23:09.864Z,24.40
2017-08-07T10:25:37.416Z,24.50
2017-08-07T10:28:05.492Z,24.60
2017-08-07T10:30:33.303Z,24.70
2017-08-07T10:33:00.821Z,24.70
2017-08-07T10:35:28.322Z,24.80
2017-08-07T10:37:55.839Z,24.70
2017-08-07T10:40:23.347Z,24.70
2017-08-07T10:42:50.879Z,24.80
2017-08-07T10:45:18.383Z,24.80
2017-08-07T10:47:46.666Z,25.20
2017-08-07T10:50:14.163Z,25.20
2017-08-07T10:52:42.304Z,25.50
2017-08-07T10:55:09.815Z,25.90
2017-08-07T10:57:37.320Z,26.60
2017-08-07T11:00:04.851Z,27.50
2017-08-07T11:02:33.132Z,28.90
2017-08-07T11:05:00.711Z,28.90
2017-08-07T11:07:28.679Z,29.60
2017-08-07T11:09:56.204Z,30.00
2017-08-07T11:12:24.315Z,30.50
2017-08-07T11:14:51.830Z,31.00
2017-08-07T11:17:19.340Z,31.40
2017-08-07T11:19:46.864Z,32.20
2017-08-07T11:22:15.158Z,33.40
2017-08-07T11:24:42.683Z,33.30
2017-08-07T11:27:10.274Z,33.70
2017-08-07T11:29:37.835Z,34.10
2017-08-07T11:32:05.360Z,34.40
2017-08-07T11:34:33.855Z,35.10
2017-08-07T11:37:02.142Z,35.50
2017-08-07T11:39:30.403Z,35.80
2017-08-07T11:41:58.697Z,35.90
2017-08-07T11:44:26.259Z,35.90
2017-08-07T11:46:53.823Z,36.00
2017-08-07T11:49:21.368Z,35.90
2017-08-07T11:51:49.681Z,35.00
2017-08-07T11:54:17.191Z,35.00
2017-08-07T11:56:45.600Z,33.90
2017-08-07T11:59:13.107Z,33.80
2017-08-07T12:01:40.611Z,33.00
2017-08-07T12:04:08.173Z,32.20
2017-08-07T12:06:35.689Z,31.50
2017-08-07T12:09:03.295Z,31.10
2017-08-07T12:11:31.515Z,30.80
2017-08-07T12:13:59.118Z,30.40
2017-08-07T12:16:26.624Z,30.00
2017-08-07T12:18:54.142Z,29.50
2017-08-07T12:21:21.651Z,28.90
2017-08-07T12:23:49.259Z,28.50
2017-08-07T12:26:16.767Z,28.10
2017-08-07T12:28:44.379Z,27.70
2017-08-07T12:31:11.883Z,27.50
2017-08-07T12:33:39.388Z,27.20
2017-08-07T12:36:06.946Z,27.10
2017-08-07T12:38:34.454Z,26.90
2017-08-07T12:41:02.067Z,26.90
2017-08-07T12:43:29.571Z,26.80
2017-08-07T12:45:57.092Z,26.70
2017-08-07T12:48:24.600Z,26.60
2017-08-07T12:50:52.123Z,26.50
2017-08-07T12:53:19.634Z,26.40
2017-08-07T12:55:47.919Z,26.30
2017-08-07T12:58:16.190Z,26.30
2017-08-07T13:00:44.488Z,26.20
2017-08-07T13:03:12.006Z,26.20
2017-08-07T13:05:39.511Z,26.20
2017-08-07T13:08:07.055Z,26.20
2017-08-07T13:10:34.621Z,26.20
2017-08-07T13:13:02.174Z,26.20
2017-08-07T13:15:29.675Z,26.20
2017-08-07T13:17:57.698Z,26.30
2017-08-07T13:20:25.199Z,26.30
2017-08-07T13:22:52.719Z,26.30
2017-08-07T13:25:20.223Z,26.30
2017-08-07T13:27:48.656Z,26.40
2017-08-07T13:30:16.215Z,26.40
2017-08-07T13:32:43.754Z,26.50
2017-08-07T13:35:12.016Z,26.50
2017-08-07T13:37:40.039Z,26.50
2017-08-07T13:40:07.563Z,26.50
2017-08-07T13:42:35.834Z,26.60
2017-08-07T13:45:04.124Z,26.60
2017-08-07T13:47:31.638Z,26.60
2017-08-07T13:49:59.245Z,26.60
2017-08-07T13:52:26.748Z,26.70
2017-08-07T13:54:54.371Z,26.70
2017-08-07T13:57:21.876Z,26.70
2017-08-07T13:59:49.395Z,26.80
2017-08-07T14:02:16.900Z,26.90
2017-08-07T14:04:44.422Z,27.00
2017-08-07T14:07:12.671Z,27.00
2017-08-07T14:09:40.231Z,27.10
2017-08-07T14:12:07.787Z,27.10
2017-08-07T14:14:35.351Z,27.10
2017-08-07T14:17:02.879Z,27.20
2017-08-07T14:19:31.155Z,27.30
2017-08-07T14:21:59.467Z,27.30
2017-08-07T14:24:26.973Z,27.30
2017-08-07T14:26:54.490Z,27.40
2017-08-07T14:29:21.994Z,27.40
2017-08-07T14:31:49.520Z,27.50
2017-08-07T14:34:17.051Z,27.60
2017-08-07T14:36:44.607Z,27.70
2017-08-07T14:39:12.111Z,27.80
2017-08-07T14:41:39.611Z,28.00
2017-08-07T14:44:07.136Z,28.20
2017-08-07T14:46:34.635Z,28.30
2017-08-07T14:49:02.156Z,28.40
2017-08-07T14:51:29.765Z,28.60
2017-08-07T14:53:57.320Z,28.90
2017-08-07T14:56:24.879Z,29.20
2017-08-07T14:58:52.743Z,29.70
2017-08-07T15:01:20.313Z,30.50
2017-08-07T15:03:47.830Z,31.90
2017-08-07T15:06:16.559Z,35.40
2017-08-07T15:08:44.109Z,35.40
2017-08-07T15:11:11.665Z,37.00
2017-08-07T15:13:39.699Z,38.40
2017-08-07T15:16:07.215Z,39.60
2017-08-07T15:18:34.727Z,40.10
2017-08-07T15:21:03.028Z,41.80
2017-08-07T15:23:30.540Z,41.70
2017-08-07T15:25:58.432Z,42.80
2017-08-07T15:28:27.416Z,44.60
2017-08-07T15:30:55.728Z,45.20
2017-08-07T15:33:23.233Z,45.10
2017-08-07T15:35:50.763Z,45.20
2017-08-07T15:38:18.271Z,45.80
2017-08-07T15:40:46.567Z,46.40
2017-08-07T15:43:14.519Z,46.40
2017-08-07T15:45:42.816Z,46.40
2017-08-07T15:48:10.316Z,46.40
2017-08-07T15:50:37.835Z,46.30
2017-08-07T15:53:06.050Z,46.10
2017-08-07T15:55:33.557Z,45.80
2017-08-07T15:58:01.092Z,45.90
2017-08-07T16:00:29.363Z,46.30
2017-08-07T16:02:56.892Z,46.30
2017-08-07T16:05:25.285Z,46.40
2017-08-07T16:07:52.896Z,46.30
2017-08-07T16:10:20.455Z,46.20
2017-08-07T16:12:48.015Z,45.00
2017-08-07T16:15:15.521Z,42.60
2017-08-07T16:17:43.040Z,40.80
2017-08-07T16:20:10.582Z,38.80
2017-08-07T16:22:38.128Z,37.30
2017-08-07T16:25:06.391Z,34.80
2017-08-07T16:27:34.660Z,33.50
2017-08-07T16:30:02.184Z,33.40
2017-08-07T16:32:29.699Z,32.60
2017-08-07T16:34:57.983Z,31.40
2017-08-07T16:37:25.488Z,31.40
2017-08-07T16:39:53.009Z,30.80
2017-08-07T16:42:20.527Z,30.40
2017-08-07T16:44:48.835Z,29.60
2017-08-07T16:47:16.808Z,29.50
2017-08-07T16:49:44.327Z,29.30
2017-08-07T16:52:11.834Z,29.00
2017-08-07T16:54:39.379Z,28.80
2017-08-07T16:57:07.362Z,28.50
2017-08-07T16:59:34.911Z,28.40
2017-08-07T17:02:03.139Z,28.30
2017-08-07T17:04:30.643Z,28.00
2017-08-07T17:06:58.203Z,27.80
2017-08-07T17:09:26.231Z,27.60
2017-08-07T17:11:53.742Z,27.50
2017-08-07T17:14:21.244Z,27.40
2017-08-07T17:16:48.848Z,27.30
2017-08-07T17:19:16.878Z,27.20
2017-08-07T17:21:45.001Z,27.10
2017-08-07T17:24:12.512Z,27.00
2017-08-07T17:26:40.027Z,26.90
2017-08-07T17:29:07.524Z,26.90
2017-08-07T17:31:35.127Z,26.80
2017-08-07T17:34:02.631Z,26.70
2017-08-07T17:36:30.162Z,26.60
2017-08-07T17:38:57.660Z,26.60
2017-08-07T17:41:25.165Z,26.60
2017-08-07T17:43:53.631Z,26.50
2017-08-07T17:46:21.375Z,26.40
2017-08-07T17:48:49.680Z,26.30
2017-08-07T17:51:17.188Z,26.30
2017-08-07T17:53:44.719Z,26.30
2017-08-07T17:56:12.222Z,26.20
2017-08-07T17:58:40.522Z,26.00
2017-08-07T18:01:08.087Z,26.00
2017-08-07T18:03:36.475Z,26.00
2017-08-07T18:06:04.135Z,25.90
2017-08-07T18:08:32.519Z,25.90
2017-08-07T18:11:00.055Z,25.80
2017-08-07T18:13:27.620Z,25.70
2017-08-07T18:15:55.146Z,25.60
2017-08-07T18:18:23.419Z,25.50
2017-08-07T18:20:51.708Z,25.50
2017-08-07T18:23:20.216Z,25.40
2017-08-07T18:25:47.744Z,25.40
2017-08-07T18:28:16.020Z,25.30
2017-08-07T18:30:44.323Z,25.30
2017-08-07T18:33:11.938Z,25.20
2017-08-07T18:35:39.534Z,25.20
2017-08-07T18:38:07.092Z,25.20
2017-08-07T18:40:34.673Z,25.00
2017-08-07T18:43:02.191Z,25.00
2017-08-07T18:45:31.165Z,24.90
2017-08-07T18:47:58.683Z,24.80
2017-08-07T18:50:26.436Z,24.80
2017-08-07T18:52:54.599Z,24.80
2017-08-07T18:55:22.111Z,24.80
2017-08-07T18:57:49.723Z,24.70
2017-08-07T19:00:17.227Z,24.60
2017-08-07T19:02:44.844Z,24.50
2017-08-07T19:05:12.346Z,24.50
2017-08-07T19:07:39.852Z,24.40
2017-08-07T19:10:07.411Z,24.40
2017-08-07T19:12:34.976Z,24.40
2017-08-07T19:15:02.496Z,24.40
2017-08-07T19:17:31.119Z,24.20
2017-08-07T19:19:58.644Z,24.20
2017-08-07T19:22:26.923Z,24.20
2017-08-07T19:24:55.212Z,24.00
2017-08-07T19:27:22.728Z,24.00
2017-08-07T19:29:50.268Z,24.00
2017-08-07T19:32:17.774Z,24.00
2017-08-07T19:34:46.050Z,23.90
2017-08-07T19:37:14.331Z,23.80
2017-08-07T19:39:42.602Z,23.80
2017-08-07T19:42:10.904Z,23.70
2017-08-07T19:44:38.466Z,23.70
2017-08-07T19:47:06.027Z,23.60
2017-08-07T19:49:33.535Z,23.60
2017-08-07T19:52:01.070Z,23.60
2017-08-07T19:54:28.584Z,23.60
2017-08-07T19:56:56.091Z,23.50
2017-08-07T19:59:23.924Z,23.50
2017-08-07T20:01:51.435Z,23.40
2017-08-07T20:04:19.139Z,23.40
2017-08-07T20:06:46.701Z,23.40
2017-08-07T20:09:14.255Z,23.40
2017-08-07T20:11:41.822Z,23.30
2017-08-07T20:14:09.344Z,23.30
2017-08-07T20:16:37.623Z,23.20
2017-08-07T20:19:06.440Z,23.20
2017-08-07T20:21:34.000Z,23.20
2017-08-07T20:24:01.520Z,23.20
2017-08-07T20:26:29.126Z,23.10
2017-08-07T20:28:56.652Z,23.00
2017-08-07T20:31:24.664Z,23.00
2017-08-07T20:33:52.166Z,23.00
2017-08-07T20:36:19.695Z,22.90
2017-08-07T20:38:47.210Z,22.90
2017-08-07T20:41:14.727Z,22.90
2017-08-07T20:43:43.046Z,22.80
2017-08-07T20:46:10.580Z,22.80
2017-08-07T20:48:38.851Z,22.70
2017-08-07T20:51:06.561Z,22.60
2017-08-07T20:53:34.063Z,22.60
2017-08-07T20:56:02.191Z,22.60
2017-08-07T20:58:29.819Z,22.50
2017-08-07T21:00:58.114Z,22.50
2017-08-07T21:03:25.980Z,22.40
2017-08-07T21:05:53.495Z,22.40
2017-08-07T21:08:21.025Z,22.30
2017-08-07T21:10:48.526Z,22.30
2017-08-07T21:13:16.828Z,22.20
2017-08-07T21:15:44.338Z,22.20
2017-08-07T21:18:11.856Z,22.20
2017-08-07T21:20:39.814Z,22.20
2017-08-07T21:23:07.340Z,22.10
2017-08-07T21:25:35.651Z,21.90
2017-08-07T21:28:03.206Z,21.90
2017-08-07T21:30:30.766Z,21.90
2017-08-07T21:32:58.287Z,21.80
2017-08-07T21:35:25.834Z,21.70
2017-08-07T21:37:53.340Z,21.70
2017-08-07T21:40:20.860Z,21.60
2017-08-07T21:42:48.847Z,21.60
2017-08-07T21:45:17.135Z,21.40
2017-08-07T21:47:44.638Z,21.30
2017-08-07T21:50:12.159Z,21.20
2017-08-07T21:52:39.681Z,21.10
2017-08-07T21:55:07.207Z,21.00
2017-08-07T21:57:34.736Z,21.00
2017-08-07T22:00:02.280Z,20.90
2017-08-07T22:02:30.550Z,20.80
2017-08-07T22:04:58.847Z,20.70
2017-08-07T22:07:26.366Z,20.70
2017-08-07T22:09:53.871Z,20.70
2017-08-07T22:12:21.419Z,20.70
2017-08-07T22:14:48.978Z,20.70
2017-08-07T22:17:16.495Z,20.60
2017-08-07T22:19:44.729Z,20.60
2017-08-07T22:22:12.285Z,20.60
2017-08-07T22:24:39.873Z,20.60
2017-08-07T22:27:07.387Z,20.50
2017-08-07T22:29:35.274Z,20.40
2017-08-07T22:32:02.773Z,20.40
2017-08-07T22:34:30.291Z,20.30
2017-08-07T22:36:58.495Z,20.30
2017-08-07T22:39:26.026Z,20.30
2017-08-07T22:41:53.564Z,20.20
2017-08-07T22:44:21.592Z,20.20
2017-08-07T22:46:49.906Z,20.20
2017-08-07T22:49:17.416Z,20.10
2017-08-07T22:51:45.028Z,20.10
2017-08-07T22:54:12.530Z,20.10
2017-08-07T22:56:40.143Z,20.10
2017-08-07T22:59:07.651Z,20.10
2017-08-07T23:01:35.190Z,20.00
2017-08-07T23:04:02.714Z,20.00
2017-08-07T23:06:30.220Z,19.90
2017-08-07T23:08:57.743Z,19.90
2017-08-07T23:11:25.758Z,19.80
2017-08-07T23:13:53.358Z,19.80
2017-08-07T23:16:21.143Z,19.80
2017-08-07T23:18:48.702Z,19.70
2017-08-07T23:21:16.203Z,19.80
2017-08-07T23:23:43.806Z,19.70
2017-08-07T23:26:11.307Z,19.60
2017-08-07T23:28:38.802Z,19.60
2017-08-07T23:31:07.100Z,19.60
2017-08-07T23:33:34.660Z,19.60
2017-08-07T23:36:02.184Z,19.60
2017-08-07T23:38:30.493Z,19.60
2017-08-07T23:40:58.011Z,19.60
2017-08-07T23:43:25.608Z,19.60
2017-08-07T23:45:53.175Z,19.60
2017-08-07T23:48:20.728Z,19.60
2017-08-07T23:50:48.255Z,19.50
2017-08-07T23:53:16.532Z,19.40
2017-08-07T23:55:44.820Z,19.40
2017-08-07T23:58:13.935Z,19.40
